Weather History for Marfa, TX

Change the Weather History Date:

Tuesday, February 12, 2013

  Actual Average Record
Temperature  
Mean Temperature 38 °F -  
Max Temperature 50 °F 58 °F 73 °F (2000)
Min Temperature 26 °F 28 °F 6 °F (2006)
Degree Days  
Heating Degree Days 27    
Moisture  
Dew Point 13 °F    
Average Humidity 37    
Maximum Humidity 70    
Minimum Humidity 16    
Precipitation  
Precipitation 0.00 in - - ()
Sea Level Pressure  
Sea Level Pressure 30.04 in    
Wind  
Wind Speed 13 mph (WNW)    
Max Wind Speed 30 mph    
Max Gust Speed 36 mph    
Visibility 10 miles    
Events      
Averages and records for this station are not official NWS values.
T = Trace of Precipitation, MM = Missing Value Source: NWS Daily Summary

Daily Weather History Graph

Daily Weather History Graph

Search for Another Location

Airport:

Trip Planner

Search our weather history database for the weather conditions in past years. The results will help you decide how hot, cold, wet, or windy it might be!

Date:

Astronomy

Feb. 12, 2013 Rise Set
Actual Time 7:38 AM CST 6:42 PM CST
Civil Twilight 7:14 AM CST 7:06 PM CST
Nautical Twilight 6:45 AM CST 7:35 PM CST
Astronomical Twilight 6:17 AM CST 8:03 PM CST
Moon 8:52 AM CST (2/12) 9:27 PM CST (2/12)
Length of Visible Light 11h 52m
Length of Day
11h 03m
Waxing Crescent, 7% of the Moon is Illuminated
Feb 12
Waxing Crescent
Feb 17
First Quarter
Feb 25
Full
Mar 4
Last Quarter
Mar 11
New

Hourly Weather History & Observations

Time (CST) Temp. Windchill Dew Point Humidity Pressure Visibility Wind Dir Wind Speed Gust Speed Precip Events Conditions
12:15 AM 37.4 °F 34.9 °F 21.2 °F 52% 29.92 in 10.0 mi WSW 3.5 mph - N/A   Clear
12:35 AM 33.8 °F 30.8 °F 19.4 °F 56% 29.93 in 10.0 mi West 3.5 mph - N/A   Clear
12:55 AM 35.6 °F 29.2 °F 19.4 °F 52% 29.93 in 10.0 mi West 8.1 mph - N/A   Clear
1:15 AM 42.8 °F 35.8 °F 17.6 °F 36% 29.93 in 10.0 mi West 13.8 mph - N/A   Clear
1:35 AM 42.8 °F 36.2 °F 15.8 °F 34% 29.93 in 10.0 mi West 12.7 mph - N/A   Clear
1:55 AM 41.0 °F 34.3 °F 14.0 °F 33% 29.94 in 10.0 mi WNW 11.5 mph - N/A   Clear
2:15 AM 42.8 °F 37.0 °F 15.8 °F 34% 29.94 in 10.0 mi WNW 10.4 mph - N/A   Clear
2:35 AM 41.0 °F 35.8 °F 14.0 °F 33% 29.94 in 10.0 mi WNW 8.1 mph - N/A   Clear
2:55 AM 39.2 °F 33.6 °F 14.0 °F 36% 29.94 in 10.0 mi WNW 8.1 mph - N/A   Clear
3:15 AM 39.2 °F 33.6 °F 14.0 °F 36% 29.94 in 10.0 mi WNW 8.1 mph - N/A   Clear
3:35 AM 35.6 °F 31.7 °F 12.2 °F 38% 29.95 in 10.0 mi NW 4.6 mph - N/A   Clear
3:55 AM 33.8 °F 27.7 °F 12.2 °F 41% 29.95 in 10.0 mi NW 6.9 mph - N/A   Clear
4:15 AM 30.2 °F 25.4 °F 14.0 °F 51% 29.95 in 10.0 mi NW 4.6 mph - N/A   Clear
4:35 AM 30.2 °F - 12.2 °F 47% 29.95 in 10.0 mi Calm Calm - N/A   Clear
4:55 AM 32.0 °F 27.5 °F 14.0 °F 48% 29.96 in 10.0 mi SW 4.6 mph - N/A   Clear
5:15 AM 35.6 °F 28.0 °F 15.8 °F 44% 29.97 in 10.0 mi WNW 10.4 mph - N/A   Clear
5:35 AM 37.4 °F 29.8 °F 14.0 °F 38% 29.98 in 10.0 mi WNW 11.5 mph - N/A   Clear
5:55 AM 37.4 °F 29.8 °F 17.6 °F 45% 30.00 in 10.0 mi WNW 11.5 mph - N/A   Mostly Cloudy
6:15 AM 37.4 °F 27.8 °F 24.8 °F 60% 30.01 in 10.0 mi WNW 17.3 mph - N/A   Overcast
6:35 AM 37.4 °F 28.5 °F 26.6 °F 65% 30.01 in 10.0 mi WNW 15.0 mph 21.9 mph N/A   Scattered Clouds
6:55 AM 35.6 °F 25.2 °F 26.6 °F 70% 30.02 in 10.0 mi WNW 18.4 mph 23.0 mph N/A   Partly Cloudy
7:15 AM 35.6 °F 24.5 °F 26.6 °F 70% 30.03 in 10.0 mi WNW 20.7 mph 26.5 mph N/A   Clear
7:35 AM 35.6 °F 25.9 °F 26.6 °F 70% 30.04 in 10.0 mi WNW 16.1 mph - N/A   Clear
7:55 AM 35.6 °F 26.6 °F 26.6 °F 70% 30.04 in 10.0 mi West 13.8 mph - N/A   Clear
8:15 AM 35.6 °F 26.6 °F 26.6 °F 70% 30.05 in 10.0 mi West 13.8 mph - N/A   Clear
8:35 AM 37.4 °F 29.8 °F 24.8 °F 60% 30.07 in 10.0 mi WSW 11.5 mph - N/A   Clear
8:55 AM 39.2 °F 29.8 °F 23.0 °F 52% 30.07 in 10.0 mi West 18.4 mph 24.2 mph N/A   Scattered Clouds
9:15 AM 39.2 °F 29.6 °F 23.0 °F 52% 30.08 in 10.0 mi West 19.6 mph 24.2 mph N/A   Scattered Clouds
9:35 AM 39.2 °F 28.7 °F 23.0 °F 52% 30.08 in 10.0 mi West 23.0 mph 27.6 mph N/A   Clear
9:55 AM 41.0 °F 30.9 °F 23.0 °F 49% 30.08 in 10.0 mi West 24.2 mph - N/A   Partly Cloudy
10:15 AM 42.8 °F 33.3 °F 24.8 °F 49% 30.08 in 10.0 mi West 24.2 mph 29.9 mph N/A   Clear
10:35 AM 41.0 °F 29.8 °F 21.2 °F 45% 30.07 in 10.0 mi West 29.9 mph 33.4 mph N/A   Clear
10:55 AM 42.8 °F 32.7 °F 19.4 °F 39% 30.09 in 10.0 mi West 27.6 mph 32.2 mph N/A   Clear
11:15 AM 42.8 °F 32.5 °F 17.6 °F 36% 30.10 in 10.0 mi West 28.8 mph 33.4 mph N/A   Clear
11:35 AM 44.6 °F 34.9 °F 15.8 °F 31% 30.09 in 10.0 mi West 28.8 mph 33.4 mph N/A   Clear
11:55 AM 44.6 °F 34.7 °F 12.2 °F 27% 30.09 in 10.0 mi West 29.9 mph 35.7 mph N/A   Clear
12:15 PM 46.4 °F 37.5 °F 12.2 °F 25% 30.09 in 10.0 mi WNW 27.6 mph 32.2 mph N/A   Clear
12:35 PM 48.2 °F - 10.4 °F 22% 30.09 in 10.0 mi WNW 25.3 mph 32.2 mph N/A   Clear
12:55 PM 48.2 °F - 10.4 °F 22% 30.09 in 10.0 mi West 24.2 mph 32.2 mph N/A   Clear
1:15 PM 48.2 °F - 10.4 °F 22% 30.08 in 10.0 mi West 21.9 mph 29.9 mph N/A   Clear
1:35 PM 48.2 °F - 12.2 °F 24% 30.07 in 10.0 mi WNW 21.9 mph 27.6 mph N/A   Clear
1:55 PM 48.2 °F - 10.4 °F 22% 30.06 in 10.0 mi WNW 26.5 mph 31.1 mph N/A   Clear
2:15 PM 48.2 °F - 10.4 °F 22% 30.05 in 10.0 mi WNW 21.9 mph 31.1 mph N/A   Clear
2:35 PM 50.0 °F - 8.6 °F 19% 30.05 in 10.0 mi West 24.2 mph 29.9 mph N/A   Clear
2:55 PM 50.0 °F - 6.8 °F 17% 30.04 in 10.0 mi WNW 23.0 mph 28.8 mph N/A   Clear
3:15 PM 50.0 °F - 8.6 °F 19% 30.04 in 10.0 mi WNW 19.6 mph 28.8 mph N/A   Clear
3:35 PM 50.0 °F - 6.8 °F 17% 30.05 in 10.0 mi West 23.0 mph 28.8 mph N/A   Clear
3:55 PM 50.0 °F - 5.0 °F 16% 30.04 in 10.0 mi WNW 23.0 mph 26.5 mph N/A   Clear
4:15 PM 50.0 °F - 6.8 °F 17% 30.06 in 10.0 mi NW 19.6 mph 26.5 mph N/A   Clear
4:35 PM 48.2 °F - 6.8 °F 19% 30.06 in 10.0 mi WNW 18.4 mph 28.8 mph N/A   Clear
4:55 PM 48.2 °F - 8.6 °F 20% 30.05 in 10.0 mi WNW 19.6 mph 27.6 mph N/A   Clear
5:15 PM 48.2 °F - 8.6 °F 20% 30.05 in 10.0 mi WNW 16.1 mph 26.5 mph N/A   Clear
5:35 PM 48.2 °F - 8.6 °F 20% 30.05 in 10.0 mi WNW 20.7 mph - N/A   Clear
5:55 PM 48.2 °F - 6.8 °F 19% 30.05 in 10.0 mi NW 16.1 mph - N/A   Clear
6:15 PM 46.4 °F 39.5 °F 6.8 °F 20% 30.05 in 10.0 mi WNW 17.3 mph - N/A   Clear
6:35 PM 44.6 °F 39.7 °F 5.0 °F 20% 30.06 in 10.0 mi WNW 9.2 mph - N/A   Clear
6:55 PM 44.6 °F 38.8 °F 6.8 °F 21% 30.07 in 10.0 mi NW 11.5 mph - N/A   Clear
7:15 PM 42.8 °F 37.5 °F 6.8 °F 23% 30.08 in 10.0 mi NW 9.2 mph - N/A   Clear
7:35 PM 39.2 °F 33.0 °F 5.0 °F 24% 30.09 in 10.0 mi NNW 9.2 mph - N/A   Clear
7:55 PM 37.4 °F 32.1 °F 5.0 °F 26% 30.10 in 10.0 mi NNW 6.9 mph - N/A   Clear
8:15 PM 33.8 °F 27.0 °F 5.0 °F 30% 30.11 in 10.0 mi NNW 8.1 mph - N/A   Clear
8:35 PM 35.6 °F 29.9 °F 6.8 °F 30% 30.11 in 10.0 mi NNW 6.9 mph - N/A   Clear
8:55 PM 28.4 °F 22.2 °F 3.2 °F 34% 30.12 in 10.0 mi NW 5.8 mph - N/A   Clear
9:15 PM 26.6 °F 19.1 °F 3.2 °F 37% 30.12 in 10.0 mi North 6.9 mph - N/A   Clear
9:35 PM 26.6 °F 17.5 °F 6.8 °F 43% 30.12 in 10.0 mi NNW 9.2 mph - N/A   Clear
9:55 PM 28.4 °F 21.2 °F 6.8 °F 40% 30.13 in 10.0 mi NNW 6.9 mph - N/A   Clear
10:15 PM 28.4 °F 19.1 °F 6.8 °F 40% 30.12 in 10.0 mi NW 10.4 mph - N/A   Clear
10:35 PM 26.6 °F 18.2 °F 6.8 °F 43% 30.13 in 10.0 mi NW 8.1 mph - N/A   Clear
10:55 PM 26.6 °F 18.2 °F 6.8 °F 43% 30.13 in 10.0 mi NNW 8.1 mph - N/A   Clear
11:15 PM 26.6 °F 18.2 °F 6.8 °F 43% 30.14 in 10.0 mi North 8.1 mph - N/A   Clear
11:35 PM 28.4 °F 20.4 °F 8.6 °F 43% 30.14 in 10.0 mi NNE 8.1 mph - N/A   Clear
11:55 PM 26.6 °F 17.5 °F 6.8 °F 43% 30.14 in 10.0 mi North 9.2 mph - N/A   Clear